Time;durP1;ratioP1;P1;durP2;ratioP2;P2;SDS_P1;SDS_P2;PMS_P1;PMS_P2;Temp;Humidity;BMP_temperature;BMP_pressure;BME280_temperature;BME280_humidity;BME280_pressure;Samples;Min_cycle;Max_cycle;Signal;HPM_P1;HPM_P2
2022/10/10 00:00:41;;;;;;;7.78;5.70;;;;;;;18.51;54.42;102192.34;1576631;91;21188;-50
2022/10/10 00:03:08;;;;;;;14.90;6.72;;;;;;;18.49;54.39;102191.97;1576344;91;21058;-50
2022/10/10 00:05:38;;;;;;;10.23;6.55;;;;;;;18.44;54.29;102191.27;1576281;91;21070;-50
2022/10/10 00:08:06;;;;;;;10.18;6.10;;;;;;;18.41;54.30;102204.49;1576724;91;21557;-50
2022/10/10 00:10:35;;;;;;;7.78;6.25;;;;;;;18.36;54.46;102210.38;1576344;90;21143;-49
2022/10/10 00:13:04;;;;;;;9.83;6.37;;;;;;;18.32;54.44;102209.59;1576711;91;21155;-51
2022/10/10 00:15:30;;;;;;;10.68;6.72;;;;;;;18.28;54.41;102215.03;1576503;91;21081;-51
2022/10/10 00:17:57;;;;;;;8.55;5.90;;;;;;;18.26;54.84;102228.70;1576391;91;21574;-51
2022/10/10 00:20:24;;;;;;;10.75;6.72;;;;;;;18.22;54.37;102230.99;1577067;91;21137;-57
2022/10/10 00:22:50;;;;;;;9.33;5.65;;;;;;;18.18;54.34;102230.67;1577603;90;21125;-50
2022/10/10 00:25:18;;;;;;;9.70;6.47;;;;;;;18.13;54.28;102228.65;1577792;91;21124;-51
2022/10/10 00:27:44;;;;;;;6.47;5.80;;;;;;;18.09;54.17;102227.02;1578184;91;21054;-49
2022/10/10 00:30:13;;;;;;;9.15;5.95;;;;;;;18.04;54.08;102227.59;1577906;89;21089;-50
2022/10/10 00:32:41;;;;;;;8.13;5.87;;;;;;;17.99;54.07;102225.56;1578205;89;21081;-49
2022/10/10 00:35:09;;;;;;;7.42;6.03;;;;;;;17.98;54.41;102232.59;1578132;91;21108;-50
2022/10/10 00:37:37;;;;;;;6.20;5.20;;;;;;;17.98;54.61;102227.77;1637740;86;21045;-50
2022/10/10 00:40:05;;;;;;;7.83;5.83;;;;;;;17.94;54.51;102230.95;1675772;83;21501;-50
2022/10/10 00:42:32;;;;;;;9.23;5.87;;;;;;;17.92;54.46;102238.48;1721863;81;21005;-54
2022/10/10 00:45:24;;;;;;;10.32;5.40;;;;;;;17.88;54.43;102238.59;1709993;82;21057;-51
2022/10/10 00:47:54;;;;;;;8.38;6.20;;;;;;;17.84;54.39;102235.63;1721312;81;21077;-50
2022/10/10 00:50:21;;;;;;;9.13;6.75;;;;;;;17.79;54.14;102233.57;1706094;83;20990;-50
2022/10/10 00:52:49;;;;;;;7.15;5.42;;;;;;;17.77;54.58;102228.80;1724645;81;21054;-50
2022/10/10 00:55:17;;;;;;;11.43;5.65;;;;;;;17.77;54.38;102235.38;1724256;81;21073;-50
2022/10/10 00:57:44;;;;;;;10.90;6.50;;;;;;;17.77;54.67;102235.38;1722576;81;21037;-49
2022/10/10 01:00:12;;;;;;;9.45;6.15;;;;;;;17.75;54.41;102238.52;1721866;81;21490;-49
2022/10/10 01:02:40;;;;;;;9.55;5.20;;;;;;;17.73;54.57;102236.82;1721150;81;20986;-50
2022/10/10 01:05:08;;;;;;;7.90;5.65;;;;;;;17.69;54.38;102236.05;1721483;81;21038;-50
2022/10/10 01:07:34;;;;;;;7.92;5.95;;;;;;;17.65;54.55;102225.20;1721621;81;21509;-51
2022/10/10 01:10:07;;;;;;;9.55;6.30;;;;;;;17.62;54.61;102238.42;1723056;81;21029;-55
2022/10/10 01:13:01;;;;;;;7.33;5.95;;;;;;;17.59;54.44;102241.16;1624860;86;21022;-50
2022/10/10 01:15:55;;;;;;;10.25;5.35;;;;;;;17.54;54.55;102254.02;1595897;89;21114;-51
2022/10/10 01:18:31;;;;;;;8.95;5.70;;;;;;;17.46;54.71;102255.51;1596956;89;21207;-51
2022/10/10 01:21:24;;;;;;;8.55;5.75;;;;;;;17.42;54.55;102243.78;1497085;96;21178;-52
2022/10/10 01:24:46;;;;;;;7.35;5.08;;;;;;;17.36;54.42;102247.45;1489809;94;21111;-50
2022/10/10 01:27:27;;;;;;;6.17;4.78;;;;;;;17.31;54.69;102249.32;1483090;96;21139;-51
2022/10/10 01:29:57;;;;;;;8.73;5.28;;;;;;;17.25;54.52;102258.69;1489788;96;21104;-50
2022/10/10 01:32:43;;;;;;;6.60;5.45;;;;;;;17.20;54.74;102247.44;1489561;96;21100;-51
2022/10/10 01:35:30;;;;;;;8.38;5.45;;;;;;;17.17;54.68;102250.13;1482580;96;21092;-55
2022/10/10 01:38:06;;;;;;;7.28;5.50;;;;;;;17.13;54.86;102266.89;1489396;96;21178;-51
2022/10/10 01:41:12;;;;;;;8.48;5.45;;;;;;;17.10;54.82;102260.41;1487336;96;21608;-49
2022/10/10 01:43:39;;;;;;;7.72;5.65;;;;;;;17.06;54.77;102256.97;1488813;96;21092;-51
2022/10/10 01:46:17;;;;;;;7.58;5.10;;;;;;;17.05;54.73;102276.73;1489350;96;21129;-50
2022/10/10 01:48:49;;;;;;;8.08;5.35;;;;;;;17.03;54.79;102273.28;1481841;96;21085;-55
2022/10/10 01:51:30;;;;;;;9.45;5.12;;;;;;;17.00;54.70;102269.43;1480201;96;21552;-52
2022/10/10 01:54:11;;;;;;;8.50;4.90;;;;;;;16.97;54.89;102260.28;1509031;93;21121;-50
2022/10/10 01:57:00;;;;;;;7.03;5.10;;;;;;;16.95;54.89;102269.53;1502107;93;21562;-51
2022/10/10 02:00:06;;;;;;;7.25;4.67;;;;;;;16.92;54.77;102267.41;1519904;92;21054;-50
2022/10/10 02:03:05;;;;;;;6.83;4.80;;;;;;;16.88;54.87;102271.01;1565420;90;21056;-51
2022/10/10 02:05:39;;;;;;;5.78;4.95;;;;;;;16.86;55.20;102278.07;1505760;95;21071;-51
2022/10/10 02:08:13;;;;;;;7.12;4.70;;;;;;;16.84;55.30;102289.95;1508794;95;21618;-50
2022/10/10 02:10:45;;;;;;;6.92;4.72;;;;;;;16.83;55.30;102298.75;1538853;93;21076;-52
2022/10/10 02:13:12;;;;;;;7.60;4.78;;;;;;;16.81;55.30;102307.56;1539646;92;21099;-51
2022/10/10 02:15:45;;;;;;;5.75;4.40;;;;;;;16.79;55.47;102298.85;1541962;92;21132;-50
2022/10/10 02:18:11;;;;;;;6.47;4.87;;;;;;;16.77;55.37;102302.84;1559916;90;21032;-50
2022/10/10 02:20:39;;;;;;;7.75;4.60;;;;;;;16.76;55.46;102314.67;1561186;90;21061;-55
2022/10/10 02:23:06;;;;;;;6.00;4.15;;;;;;;16.73;55.41;102311.66;1545992;89;21036;-51
2022/10/10 02:25:36;;;;;;;5.55;3.90;;;;;;;16.72;55.49;102321.78;1618098;88;21096;-51
2022/10/10 02:28:14;;;;;;;5.35;4.30;;;;;;;16.71;55.40;102304.73;1599130;90;21095;-52
2022/10/10 02:30:44;;;;;;;5.53;4.35;;;;;;;16.70;55.54;102316.12;1625877;87;21093;-49
2022/10/10 02:33:10;;;;;;;6.83;4.40;;;;;;;16.62;55.92;102316.75;1626084;87;21002;-50
2022/10/10 02:35:41;;;;;;;7.65;4.67;;;;;;;16.69;55.60;102318.36;1605050;87;21564;-52
2022/10/10 02:38:10;;;;;;;4.70;3.98;;;;;;;16.69;55.37;102312.63;1626350;87;21514;-52
2022/10/10 02:40:36;;;;;;;5.65;4.45;;;;;;;16.66;55.23;102324.98;1641789;84;21001;-51
2022/10/10 02:43:05;;;;;;;8.35;4.53;;;;;;;16.65;55.38;102327.21;1742170;82;21036;-54
2022/10/10 02:45:32;;;;;;;5.03;4.35;;;;;;;16.64;55.29;102334.66;1742487;81;20996;-51
2022/10/10 02:48:00;;;;;;;6.70;4.00;;;;;;;16.61;55.32;102336.06;1742469;81;21072;-53
2022/10/10 02:50:27;;;;;;;6.33;4.05;;;;;;;16.59;55.41;102340.48;1717775;81;21020;-54
2022/10/10 02:52:54;;;;;;;5.95;3.85;;;;;;;16.57;55.46;102343.13;1742129;82;21050;-52
2022/10/10 02:55:21;;;;;;;7.62;3.75;;;;;;;16.56;55.29;102345.80;1741874;81;21043;-52
2022/10/10 02:57:48;;;;;;;4.72;3.83;;;;;;;16.54;55.27;102360.73;1742015;81;21068;-52
2022/10/10 03:00:17;;;;;;;6.12;3.80;;;;;;;16.49;55.18;102359.50;1741955;81;21043;-57
2022/10/10 03:02:45;;;;;;;5.17;3.92;;;;;;;16.48;55.54;102367.39;1741695;81;21055;-51
2022/10/10 03:05:13;;;;;;;5.90;3.70;;;;;;;16.46;55.22;102366.56;1741798;81;21060;-50
2022/10/10 03:07:40;;;;;;;6.28;3.90;;;;;;;16.41;55.46;102360.08;1733440;81;20990;-51
2022/10/10 03:10:09;;;;;;;4.47;3.65;;;;;;;16.38;55.58;102356.22;1710181;82;21025;-50
2022/10/10 03:12:36;;;;;;;5.33;3.60;;;;;;;16.35;55.43;102355.39;1716430;82;21002;-51
2022/10/10 03:15:06;;;;;;;8.18;3.92;;;;;;;16.33;55.47;102351.93;1712015;83;21486;-57
2022/10/10 03:17:33;;;;;;;4.85;3.30;;;;;;;16.24;55.72;102356.48;1706306;82;21070;-51
2022/10/10 03:20:00;;;;;;;4.97;3.80;;;;;;;16.18;55.45;102354.41;1713336;82;21053;-51
2022/10/10 03:22:26;;;;;;;8.03;3.92;;;;;;;16.17;55.67;102365.39;1709885;82;21054;-51
2022/10/10 03:24:53;;;;;;;5.75;3.65;;;;;;;16.14;55.66;102358.87;1716177;81;21069;-53
2022/10/10 03:27:20;;;;;;;5.05;3.30;;;;;;;16.15;55.36;102360.61;1714381;82;21034;-52
2022/10/10 03:29:46;;;;;;;5.20;3.45;;;;;;;16.10;55.31;102357.20;1714815;82;21054;-51
2022/10/10 03:32:13;;;;;;;7.83;3.35;;;;;;;16.13;55.70;102358.91;1715625;83;21088;-54
2022/10/10 03:34:40;;;;;;;5.37;3.35;;;;;;;16.16;55.57;102362.33;1716649;82;21030;-51
2022/10/10 03:37:07;;;;;;;6.45;3.10;;;;;;;16.16;55.66;102371.52;1716392;82;21506;-52
2022/10/10 03:39:34;;;;;;;4.97;3.67;;;;;;;16.14;55.73;102364.12;1714689;82;21038;-51
2022/10/10 03:42:01;;;;;;;5.28;3.08;;;;;;;16.13;55.58;102370.28;1706881;82;21072;-52
2022/10/10 03:44:27;;;;;;;5.35;3.45;;;;;;;16.10;55.53;102372.95;1709929;83;21528;-51
2022/10/10 03:46:54;;;;;;;4.92;3.25;;;;;;;16.09;55.58;102372.52;1712922;82;21081;-51
2022/10/10 03:49:21;;;;;;;5.60;3.20;;;;;;;16.10;55.54;102376.89;1712828;82;21034;-52
2022/10/10 03:51:47;;;;;;;6.30;3.65;;;;;;;16.09;55.64;102375.14;1713881;82;21088;-51
2022/10/10 03:54:14;;;;;;;6.03;3.67;;;;;;;16.12;55.49;102378.16;1708291;83;21101;-48
2022/10/10 03:56:41;;;;;;;5.30;3.37;;;;;;;16.04;55.52;102386.20;1716694;82;21060;-50
2022/10/10 03:59:07;;;;;;;4.35;2.92;;;;;;;16.02;55.30;102382.73;1714839;82;21014;-51
2022/10/10 04:01:34;;;;;;;6.60;3.75;;;;;;;15.99;55.46;102380.15;1713296;82;21069;-50
2022/10/10 04:04:01;;;;;;;5.22;3.17;;;;;;;15.99;55.57;102383.25;1713787;82;21504;-51
2022/10/10 04:06:28;;;;;;;6.50;3.20;;;;;;;15.97;55.48;102387.19;1706693;82;21053;-52
2022/10/10 04:08:55;;;;;;;5.08;3.10;;;;;;;15.95;55.52;102388.98;1715301;83;21061;-56
2022/10/10 04:11:21;;;;;;;5.97;3.25;;;;;;;15.93;55.46;102390.77;1716336;82;21510;-51
2022/10/10 04:13:50;;;;;;;6.55;3.12;;;;;;;15.89;55.69;102394.34;1703535;82;22236;-54
2022/10/10 04:16:16;;;;;;;6.25;2.83;;;;;;;15.87;55.74;102396.13;1718644;83;21049;-57
2022/10/10 04:18:43;;;;;;;4.72;3.33;;;;;;;15.83;55.85;102402.33;1710866;82;21553;-54
2022/10/10 04:21:09;;;;;;;4.58;2.70;;;;;;;15.80;55.95;102406.33;1713281;82;21053;-52
2022/10/10 04:23:39;;;;;;;4.35;3.22;;;;;;;15.83;55.93;102404.08;1692800;83;20991;-55
2022/10/10 04:26:06;;;;;;;5.08;2.98;;;;;;;15.84;55.70;102411.08;1720397;82;21065;-54
2022/10/10 04:28:33;;;;;;;4.95;2.90;;;;;;;15.83;55.73;102414.58;1716420;82;21062;-55
2022/10/10 04:31:00;;;;;;;7.33;2.70;;;;;;;15.78;55.78;102427.80;1716322;82;21061;-51
2022/10/10 04:33:26;;;;;;;4.85;2.40;;;;;;;15.73;55.89;102424.38;1714903;82;22067;-51
2022/10/10 04:35:53;;;;;;;6.80;2.75;;;;;;;15.76;56.03;102420.41;1714802;82;21041;-54
2022/10/10 04:38:21;;;;;;;6.37;3.02;;;;;;;15.74;56.10;102430.50;1715589;83;21029;-54
2022/10/10 04:40:49;;;;;;;5.85;2.87;;;;;;;15.76;56.11;102424.34;1716443;82;21030;-51
2022/10/10 04:43:17;;;;;;;4.10;2.67;;;;;;;15.77;55.80;102433.93;1716668;82;20966;-50
2022/10/10 04:45:43;;;;;;;5.92;3.12;;;;;;;15.73;55.56;102433.56;1703503;82;20980;-52
2022/10/10 04:48:12;;;;;;;2.92;2.30;;;;;;;15.67;55.93;102429.72;1714756;82;21034;-50
2022/10/10 04:50:39;;;;;;;5.15;2.60;;;;;;;15.70;55.72;102433.63;1714231;82;21010;-51
2022/10/10 04:53:06;;;;;;;3.85;2.83;;;;;;;15.68;55.79;102432.79;1715421;83;21583;-55
2022/10/10 04:55:34;;;;;;;6.67;2.98;;;;;;;15.68;55.99;102435.41;1716754;83;21025;-50
2022/10/10 04:58:01;;;;;;;4.00;2.70;;;;;;;15.62;55.81;102432.85;1716439;82;21026;-50
2022/10/10 05:00:28;;;;;;;2.95;2.52;;;;;;;15.61;56.08;102448.19;1714773;82;21495;-53
2022/10/10 05:02:54;;;;;;;5.70;2.45;;;;;;;15.67;55.81;102439.34;1713567;82;21003;-52
2022/10/10 05:05:21;;;;;;;5.72;2.50;;;;;;;15.69;55.99;102438.44;1713622;82;20991;-50
2022/10/10 05:07:48;;;;;;;6.70;3.00;;;;;;;15.74;56.09;102441.88;1713494;82;20970;-52
2022/10/10 05:10:15;;;;;;;6.15;2.70;;;;;;;15.74;55.77;102436.63;1713003;82;21022;-57
2022/10/10 05:12:41;;;;;;;5.55;2.42;;;;;;;15.76;55.72;102439.21;1711707;82;21049;-54
2022/10/10 05:15:10;;;;;;;4.00;2.62;;;;;;;15.73;55.65;102432.25;1716292;83;21088;-54
2022/10/10 05:17:36;;;;;;;4.03;2.30;;;;;;;15.75;55.71;102440.96;1716614;82;21021;-50
2022/10/10 05:20:05;;;;;;;6.17;2.50;;;;;;;15.77;55.57;102435.23;1714941;82;21561;-50
2022/10/10 05:22:31;;;;;;;5.40;2.27;;;;;;;15.76;55.34;102434.84;1713789;82;21466;-55
2022/10/10 05:24:58;;;;;;;4.15;2.47;;;;;;;15.76;55.72;102448.40;1716187;82;21057;-52
2022/10/10 05:27:27;;;;;;;4.08;2.08;;;;;;;15.71;55.77;102458.09;1718125;81;21096;-49
2022/10/10 05:29:54;;;;;;;5.78;2.60;;;;;;;15.77;55.81;102451.42;1719369;81;21525;-53
2022/10/10 05:32:22;;;;;;;9.23;2.58;;;;;;;15.75;55.71;102453.21;1719726;81;21081;-49
2022/10/10 05:34:49;;;;;;;5.33;2.72;;;;;;;15.77;55.38;102453.61;1721949;81;21061;-55
2022/10/10 05:37:15;;;;;;;3.00;2.15;;;;;;;15.77;55.53;102454.92;1722155;81;21064;-49
2022/10/10 05:39:43;;;;;;;4.10;2.33;;;;;;;15.78;55.79;102459.30;1720042;81;21184;-53
2022/10/10 05:42:10;;;;;;;5.35;2.87;;;;;;;15.79;55.66;102455.77;1720206;81;21041;-53
2022/10/10 05:44:36;;;;;;;3.65;2.40;;;;;;;15.81;55.36;102463.61;1716480;83;21549;-54
2022/10/10 05:47:03;;;;;;;3.70;2.30;;;;;;;15.78;55.27;102465.86;1725427;81;21030;-51
2022/10/10 05:49:29;;;;;;;3.80;2.30;;;;;;;15.77;55.46;102475.92;1718724;81;21542;-52
2022/10/10 05:51:56;;;;;;;4.50;2.42;;;;;;;15.78;55.61;102473.73;1719125;81;21025;-49
2022/10/10 05:54:23;;;;;;;3.52;2.20;;;;;;;15.81;55.73;102484.17;1718938;81;21065;-52
2022/10/10 05:56:50;;;;;;;3.47;2.30;;;;;;;15.83;55.43;102467.95;1719053;81;21529;-51
2022/10/10 05:59:17;;;;;;;3.00;2.30;;;;;;;15.83;55.20;102467.95;1721436;81;21061;-51
2022/10/10 06:01:44;;;;;;;3.20;2.17;;;;;;;15.87;55.37;102472.25;1721945;81;21061;-55
2022/10/10 06:04:11;;;;;;;4.45;2.42;;;;;;;15.94;55.14;102476.97;1720322;81;21516;-50
2022/10/10 06:06:38;;;;;;;4.78;2.20;;;;;;;15.95;55.22;102478.24;1720325;81;21510;-51
2022/10/10 06:09:04;;;;;;;6.22;2.70;;;;;;;16.07;55.06;102482.44;1720918;83;21051;-50
2022/10/10 06:11:31;;;;;;;6.58;2.17;;;;;;;16.16;54.63;102479.20;1708785;81;21034;-55
2022/10/10 06:13:58;;;;;;;5.97;2.77;;;;;;;16.21;54.70;102474.75;1717836;83;21077;-52
2022/10/10 06:16:25;;;;;;;6.25;2.30;;;;;;;16.25;54.56;102482.98;1712302;81;21009;-55
2022/10/10 06:18:55;;;;;;;3.08;2.10;;;;;;;16.26;54.22;102486.45;1719519;81;21025;-50
2022/10/10 06:21:22;;;;;;;5.62;2.25;;;;;;;16.27;54.39;102482.95;1720010;81;21077;-50
2022/10/10 06:23:48;;;;;;;3.65;2.25;;;;;;;16.28;54.40;102488.17;1722023;81;21021;-51
2022/10/10 06:26:15;;;;;;;3.10;2.08;;;;;;;16.29;54.29;102493.86;1716622;82;21668;-54
2022/10/10 06:28:42;;;;;;;3.75;2.40;;;;;;;16.30;54.25;102496.89;1713447;82;21053;-51
2022/10/10 06:31:12;;;;;;;5.67;2.90;;;;;;;16.29;54.02;102489.92;1715403;82;21033;-51
2022/10/10 06:33:44;;;;;;;2.90;2.00;;;;;;;16.29;54.19;102488.61;1715459;82;21516;-51
2022/10/10 06:36:12;;;;;;;4.70;2.58;;;;;;;16.32;54.13;102498.64;1711277;83;20998;-51
2022/10/10 06:38:41;;;;;;;4.67;2.47;;;;;;;16.37;53.84;102494.16;1718799;82;21005;-52
2022/10/10 06:41:09;;;;;;;3.30;2.08;;;;;;;16.44;53.79;102493.16;1716171;82;20967;-50
2022/10/10 06:43:36;;;;;;;2.10;1.90;;;;;;;16.50;53.44;102504.47;1713108;82;20991;-50
2022/10/10 06:46:03;;;;;;;3.80;2.30;;;;;;;16.55;53.32;102508.33;1707175;82;21086;-52
2022/10/10 06:48:31;;;;;;;3.67;2.37;;;;;;;16.58;53.22;102504.30;1716299;82;21057;-54
2022/10/10 06:51:07;;;;;;;3.62;2.10;;;;;;;16.60;53.14;102499.89;1716192;82;21506;-51
2022/10/10 06:53:34;;;;;;;2.80;1.85;;;;;;;16.62;53.00;102498.09;1652483;85;21062;-51
2022/10/10 06:56:01;;;;;;;4.55;2.50;;;;;;;16.60;53.27;102508.65;1617978;87;21034;-51
2022/10/10 06:58:28;;;;;;;8.18;2.40;;;;;;;16.59;53.26;102498.17;1649391;85;21083;-52
2022/10/10 07:00:58;;;;;;;5.03;2.65;;;;;;;16.56;53.28;102504.34;1618074;89;21534;-52
2022/10/10 07:03:25;;;;;;;2.87;1.87;;;;;;;16.55;53.36;102507.02;1652276;85;21055;-49
2022/10/10 07:05:55;;;;;;;5.70;2.15;;;;;;;16.54;53.46;102509.20;1618215;87;21051;-50
2022/10/10 07:08:23;;;;;;;7.83;2.45;;;;;;;16.55;53.39;102499.12;1652465;85;21035;-51
2022/10/10 07:10:50;;;;;;;3.98;2.08;;;;;;;16.56;53.46;102511.36;1618287;87;21058;-51
2022/10/10 07:13:17;;;;;;;4.75;2.30;;;;;;;16.55;53.20;102506.54;1652196;85;21582;-51
2022/10/10 07:15:44;;;;;;;4.37;2.05;;;;;;;16.55;53.28;102501.75;1618433;89;21132;-51
2022/10/10 07:18:10;;;;;;;2.85;2.02;;;;;;;16.55;53.21;102513.58;1652209;85;21063;-50
2022/10/10 07:20:38;;;;;;;3.45;2.35;;;;;;;16.57;53.01;102506.53;1618046;87;21106;-51
2022/10/10 07:23:05;;;;;;;5.05;2.22;;;;;;;16.60;53.05;102522.23;1646969;85;21149;-51
2022/10/10 07:25:31;;;;;;;3.40;2.25;;;;;;;16.61;53.06;102506.89;1616645;87;21058;-49
2022/10/10 07:27:58;;;;;;;4.22;2.40;;;;;;;16.65;52.77;102505.94;1652275;85;21028;-51
2022/10/10 07:30:25;;;;;;;3.17;1.92;;;;;;;16.64;52.63;102505.50;1618123;87;21067;-49
2022/10/10 07:32:53;;;;;;;9.05;2.33;;;;;;;16.67;52.53;102498.89;1652272;85;21083;-52
2022/10/10 07:35:20;;;;;;;4.55;1.98;;;;;;;16.71;52.75;102503.19;1618477;87;21003;-55
2022/10/10 07:37:47;;;;;;;4.37;1.30;;;;;;;16.73;52.49;102504.03;1652175;85;21547;-51
2022/10/10 07:40:14;;;;;;;2.62;1.60;;;;;;;16.75;52.34;102505.73;1618495;89;21114;-49
2022/10/10 07:42:41;;;;;;;5.92;2.17;;;;;;;16.76;52.20;102497.38;1652337;85;21023;-49
2022/10/10 07:45:11;;;;;;;4.78;2.00;;;;;;;16.84;51.92;102499.41;1612831;87;21145;-50
2022/10/10 07:47:38;;;;;;;6.03;1.85;;;;;;;16.90;51.91;102504.53;1652526;87;21519;-50
2022/10/10 07:50:06;;;;;;;3.67;2.15;;;;;;;16.93;51.77;102501.86;1618114;87;21579;-49
2022/10/10 07:52:34;;;;;;;2.12;1.60;;;;;;;16.96;51.85;102503.12;1652467;85;21547;-51
2022/10/10 07:55:01;;;;;;;3.20;2.02;;;;;;;17.00;51.47;102492.96;1612808;87;20994;-50
2022/10/10 07:57:33;;;;;;;2.22;1.70;;;;;;;17.05;51.51;102491.08;1703742;82;21045;-49
2022/10/10 07:59:57;;;;;;;4.33;1.72;;;;;;;17.09;51.44;102487.48;1711225;82;21029;-50
